BWA225 TBPB-TLPC
Flight info
| Callsign | BWA225 |
|---|---|
| Flight time | 0h 32m |
| Altitude | 12000 |
| Route | BGI DCT TEDDY DCT ILOGO DCT DERMI DCT SLU |
| Aircraft | AT76/M-SDFGIRY/S |
Departure
| Time | 2026-05-06 23:54 |
|---|---|
| Airport | Grantley Adams International Airport (TBPB) |
Arrival
| Time | 2026-05-07 00:26 |
|---|---|
| Airport | George F. L. Charles Airport (TLPC) |
| Time | Latitude | Longitude | Altitude | Speed | Heading |
|---|---|---|---|---|---|
| 2026-05-06 23:46 | 13.07861 | -59.48824 | 169 ft | 0 kts | 345° |
| 2026-05-06 23:47 | 13.07860 | -59.48824 | 169 ft | 0 kts | 345° |
| 2026-05-06 23:48 | 13.07861 | -59.48825 | 169 ft | 1 kts | 346° |
| 2026-05-06 23:49 | 13.07864 | -59.48833 | 169 ft | 1 kts | 263° |
| 2026-05-06 23:49 | 13.07850 | -59.48870 | 169 ft | 12 kts | 251° |
| 2026-05-06 23:49 | 13.07784 | -59.48948 | 170 ft | 17 kts | 220° |
| 2026-05-06 23:49 | 13.07701 | -59.49024 | 170 ft | 13 kts | 240° |
| 2026-05-06 23:50 | 13.07656 | -59.49127 | 170 ft | 18 kts | 253° |
| 2026-05-06 23:50 | 13.07593 | -59.49366 | 170 ft | 19 kts | 255° |
| 2026-05-06 23:50 | 13.07555 | -59.49506 | 169 ft | 21 kts | 254° |
| 2026-05-06 23:51 | 13.07519 | -59.49658 | 169 ft | 23 kts | 261° |
| 2026-05-06 23:51 | 13.07481 | -59.49820 | 169 ft | 24 kts | 254° |
| 2026-05-06 23:51 | 13.07439 | -59.49983 | 169 ft | 22 kts | 261° |
| 2026-05-06 23:51 | 13.07405 | -59.50130 | 169 ft | 20 kts | 254° |
| 2026-05-06 23:52 | 13.07344 | -59.50197 | 170 ft | 11 kts | 167° |
| 2026-05-06 23:52 | 13.07322 | -59.50191 | 170 ft | 3 kts | 165° |
| 2026-05-06 23:52 | 13.07305 | -59.50186 | 170 ft | 1 kts | 164° |
| 2026-05-06 23:52 | 13.07288 | -59.50181 | 171 ft | 4 kts | 165° |
| 2026-05-06 23:53 | 13.07257 | -59.50172 | 171 ft | 5 kts | 160° |
| 2026-05-06 23:53 | 13.07239 | -59.50158 | 172 ft | 2 kts | 124° |
| 2026-05-06 23:53 | 13.07240 | -59.50129 | 172 ft | 13 kts | 79° |
| 2026-05-06 23:53 | 13.07320 | -59.49787 | 170 ft | 86 kts | 76° |
| 2026-05-06 23:54 | 13.07526 | -59.49031 | 464 ft | 115 kts | 73° |
| 2026-05-06 23:54 | 13.07758 | -59.48279 | 1123 ft | 114 kts | 72° |
| 2026-05-06 23:54 | 13.08090 | -59.47469 | 1592 ft | 138 kts | 53° |
| 2026-05-06 23:54 | 13.08966 | -59.46994 | 2306 ft | 151 kts | 9° |
| 2026-05-06 23:55 | 13.10058 | -59.47334 | 2759 ft | 183 kts | 329° |
| 2026-05-06 23:55 | 13.12680 | -59.50676 | 4172 ft | 223 kts | 306° |
| 2026-05-06 23:56 | 13.13515 | -59.52012 | 4676 ft | 229 kts | 304° |
| 2026-05-06 23:56 | 13.14375 | -59.53410 | 5190 ft | 234 kts | 304° |
| 2026-05-06 23:56 | 13.15248 | -59.54838 | 5710 ft | 238 kts | 304° |
| 2026-05-06 23:56 | 13.16136 | -59.56291 | 6227 ft | 242 kts | 304° |
| 2026-05-06 23:57 | 13.17039 | -59.57762 | 6728 ft | 245 kts | 303° |
| 2026-05-06 23:57 | 13.17956 | -59.59248 | 7212 ft | 248 kts | 304° |
| 2026-05-06 23:57 | 13.18885 | -59.60745 | 7702 ft | 250 kts | 304° |
| 2026-05-06 23:57 | 13.19829 | -59.62252 | 8206 ft | 251 kts | 304° |
| 2026-05-06 23:58 | 13.20778 | -59.63762 | 8728 ft | 252 kts | 304° |
| 2026-05-06 23:58 | 13.21737 | -59.65281 | 9246 ft | 254 kts | 304° |
| 2026-05-06 23:58 | 13.22704 | -59.66801 | 9780 ft | 255 kts | 304° |
| 2026-05-06 23:58 | 13.23675 | -59.68324 | 10270 ft | 255 kts | 304° |
| 2026-05-06 23:59 | 13.24641 | -59.69862 | 10761 ft | 256 kts | 304° |
| 2026-05-06 23:59 | 13.25593 | -59.71409 | 11253 ft | 256 kts | 304° |
| 2026-05-06 23:59 | 13.26534 | -59.72963 | 11753 ft | 257 kts | 304° |
| 2026-05-06 23:59 | 13.27483 | -59.74556 | 11977 ft | 269 kts | 304° |
| 2026-05-07 00:00 | 13.28474 | -59.76214 | 12015 ft | 275 kts | 304° |
| 2026-05-07 00:00 | 13.29471 | -59.77876 | 12035 ft | 279 kts | 304° |
| 2026-05-07 00:00 | 13.30499 | -59.79591 | 12042 ft | 283 kts | 304° |
| 2026-05-07 00:00 | 13.31534 | -59.81321 | 12040 ft | 286 kts | 304° |
| 2026-05-07 00:01 | 13.32576 | -59.83068 | 12045 ft | 288 kts | 304° |
| 2026-05-07 00:01 | 13.33622 | -59.84826 | 12046 ft | 289 kts | 304° |
| 2026-05-07 00:01 | 13.34675 | -59.86594 | 12046 ft | 290 kts | 304° |
| 2026-05-07 00:01 | 13.35730 | -59.88364 | 12054 ft | 291 kts | 304° |
| 2026-05-07 00:02 | 13.36792 | -59.90141 | 12052 ft | 291 kts | 304° |
| 2026-05-07 00:02 | 13.37853 | -59.91918 | 12049 ft | 292 kts | 304° |
| 2026-05-07 00:02 | 13.38913 | -59.93695 | 12053 ft | 292 kts | 304° |
| 2026-05-07 00:02 | 13.39973 | -59.95474 | 12049 ft | 292 kts | 304° |
| 2026-05-07 00:03 | 13.41037 | -59.97259 | 12047 ft | 293 kts | 304° |
| 2026-05-07 00:03 | 13.42100 | -59.99043 | 12044 ft | 293 kts | 304° |
| 2026-05-07 00:03 | 13.43163 | -60.00827 | 12049 ft | 293 kts | 304° |
| 2026-05-07 00:03 | 13.44224 | -60.02607 | 12048 ft | 292 kts | 304° |
| 2026-05-07 00:04 | 13.45286 | -60.04390 | 12047 ft | 292 kts | 304° |
| 2026-05-07 00:04 | 13.46350 | -60.06168 | 12053 ft | 292 kts | 304° |
| 2026-05-07 00:04 | 13.47401 | -60.07929 | 12053 ft | 293 kts | 304° |
| 2026-05-07 00:04 | 13.48466 | -60.09711 | 12054 ft | 293 kts | 304° |
| 2026-05-07 00:05 | 13.49532 | -60.11495 | 12049 ft | 292 kts | 304° |
| 2026-05-07 00:05 | 13.50595 | -60.13277 | 12052 ft | 292 kts | 304° |
| 2026-05-07 00:05 | 13.51657 | -60.15059 | 12054 ft | 292 kts | 304° |
| 2026-05-07 00:05 | 13.52720 | -60.16840 | 12052 ft | 292 kts | 304° |
| 2026-05-07 00:06 | 13.53784 | -60.18621 | 12052 ft | 292 kts | 304° |
| 2026-05-07 00:06 | 13.54847 | -60.20398 | 12052 ft | 292 kts | 304° |
| 2026-05-07 00:06 | 13.55911 | -60.22182 | 12056 ft | 292 kts | 304° |
| 2026-05-07 00:06 | 13.56972 | -60.23961 | 12053 ft | 292 kts | 304° |
| 2026-05-07 00:07 | 13.58036 | -60.25742 | 12055 ft | 292 kts | 304° |
| 2026-05-07 00:07 | 13.59100 | -60.27526 | 12056 ft | 292 kts | 304° |
| 2026-05-07 00:07 | 13.60164 | -60.29304 | 12053 ft | 292 kts | 304° |
| 2026-05-07 00:07 | 13.61226 | -60.31083 | 12055 ft | 292 kts | 304° |
| 2026-05-07 00:08 | 13.62288 | -60.32861 | 12058 ft | 292 kts | 304° |
| 2026-05-07 00:08 | 13.63352 | -60.34644 | 12058 ft | 292 kts | 304° |
| 2026-05-07 00:08 | 13.64414 | -60.36422 | 12060 ft | 292 kts | 304° |
| 2026-05-07 00:08 | 13.65479 | -60.38203 | 12062 ft | 292 kts | 304° |
| 2026-05-07 00:09 | 13.66544 | -60.39979 | 12062 ft | 292 kts | 304° |
| 2026-05-07 00:09 | 13.67610 | -60.41758 | 12062 ft | 292 kts | 304° |
| 2026-05-07 00:09 | 13.68673 | -60.43532 | 12063 ft | 292 kts | 304° |
| 2026-05-07 00:09 | 13.69741 | -60.45312 | 12068 ft | 292 kts | 304° |
| 2026-05-07 00:10 | 13.70810 | -60.47092 | 12067 ft | 292 kts | 304° |
| 2026-05-07 00:10 | 13.71878 | -60.48869 | 12069 ft | 293 kts | 304° |
| 2026-05-07 00:10 | 13.72950 | -60.50653 | 12068 ft | 293 kts | 305° |
| 2026-05-07 00:10 | 13.74020 | -60.52433 | 12065 ft | 293 kts | 304° |
| 2026-05-07 00:11 | 13.75089 | -60.54214 | 12065 ft | 292 kts | 304° |
| 2026-05-07 00:11 | 13.76152 | -60.55985 | 12066 ft | 292 kts | 304° |
| 2026-05-07 00:11 | 13.77219 | -60.57764 | 12066 ft | 292 kts | 304° |
| 2026-05-07 00:11 | 13.78289 | -60.59544 | 12072 ft | 292 kts | 304° |
| 2026-05-07 00:12 | 13.79354 | -60.61321 | 12074 ft | 292 kts | 304° |
| 2026-05-07 00:12 | 13.80423 | -60.63099 | 12077 ft | 292 kts | 304° |
| 2026-05-07 00:12 | 13.81494 | -60.64879 | 12079 ft | 292 kts | 304° |
| 2026-05-07 00:12 | 13.82564 | -60.66658 | 12077 ft | 292 kts | 304° |
| 2026-05-07 00:13 | 13.83621 | -60.68411 | 12080 ft | 292 kts | 304° |
| 2026-05-07 00:13 | 13.84694 | -60.70190 | 12080 ft | 292 kts | 304° |
| 2026-05-07 00:13 | 13.85707 | -60.71997 | 12078 ft | 293 kts | 295° |
| 2026-05-07 00:13 | 13.86024 | -60.74059 | 12033 ft | 289 kts | 272° |
| 2026-05-07 00:14 | 13.86008 | -60.75996 | 11713 ft | 254 kts | 270° |
| 2026-05-07 00:14 | 13.85933 | -60.77647 | 11301 ft | 235 kts | 268° |
| 2026-05-07 00:14 | 13.85837 | -60.79276 | 10880 ft | 222 kts | 268° |
| 2026-05-07 00:14 | 13.85755 | -60.80833 | 10404 ft | 215 kts | 267° |
| 2026-05-07 00:15 | 13.85682 | -60.82330 | 10034 ft | 205 kts | 266° |
| 2026-05-07 00:15 | 13.85602 | -60.83767 | 9653 ft | 197 kts | 266° |
| 2026-05-07 00:15 | 13.85521 | -60.85165 | 9275 ft | 195 kts | 266° |
| 2026-05-07 00:15 | 13.85442 | -60.86555 | 8875 ft | 194 kts | 266° |
| 2026-05-07 00:16 | 13.85361 | -60.87938 | 8476 ft | 193 kts | 266° |
| 2026-05-07 00:16 | 13.85282 | -60.89316 | 8089 ft | 192 kts | 266° |
| 2026-05-07 00:16 | 13.85202 | -60.90675 | 7709 ft | 190 kts | 266° |
| 2026-05-07 00:16 | 13.85121 | -60.92042 | 7324 ft | 189 kts | 266° |
| 2026-05-07 00:17 | 13.85039 | -60.93433 | 6943 ft | 204 kts | 265° |
| 2026-05-07 00:17 | 13.84946 | -60.94949 | 6535 ft | 219 kts | 266° |
| 2026-05-07 00:17 | 13.85001 | -60.96549 | 6102 ft | 229 kts | 276° |
| 2026-05-07 00:17 | 13.85210 | -60.98188 | 5664 ft | 239 kts | 279° |
| 2026-05-07 00:18 | 13.85460 | -60.99903 | 5250 ft | 245 kts | 279° |
| 2026-05-07 00:18 | 13.85720 | -61.01662 | 4830 ft | 251 kts | 279° |
| 2026-05-07 00:18 | 13.85986 | -61.03448 | 4345 ft | 253 kts | 280° |
| 2026-05-07 00:18 | 13.86246 | -61.05231 | 3909 ft | 252 kts | 279° |
| 2026-05-07 00:19 | 13.86511 | -61.07010 | 3511 ft | 251 kts | 280° |
| 2026-05-07 00:19 | 13.86777 | -61.08758 | 3306 ft | 243 kts | 280° |
| 2026-05-07 00:19 | 13.87147 | -61.10390 | 3177 ft | 227 kts | 297° |
| 2026-05-07 00:19 | 13.88159 | -61.11473 | 2824 ft | 196 kts | 336° |
| 2026-05-07 00:20 | 13.89298 | -61.12105 | 2439 ft | 184 kts | 336° |
| 2026-05-07 00:20 | 13.90399 | -61.12610 | 2215 ft | 164 kts | 346° |
| 2026-05-07 00:20 | 13.91433 | -61.12957 | 2101 ft | 149 kts | 351° |
| 2026-05-07 00:20 | 13.92490 | -61.13210 | 2065 ft | 162 kts | 353° |
| 2026-05-07 00:21 | 13.93627 | -61.13421 | 2048 ft | 169 kts | 357° |
| 2026-05-07 00:21 | 13.94394 | -61.13441 | 2036 ft | 165 kts | 14° |
| 2026-05-07 00:21 | 13.95523 | -61.13194 | 2034 ft | 166 kts | 19° |
| 2026-05-07 00:21 | 13.96640 | -61.12887 | 1918 ft | 162 kts | 22° |
| 2026-05-07 00:22 | 13.97441 | -61.12200 | 1870 ft | 147 kts | 61° |
| 2026-05-07 00:22 | 13.97972 | -61.11329 | 1845 ft | 141 kts | 59° |
| 2026-05-07 00:22 | 13.98505 | -61.10489 | 1839 ft | 139 kts | 59° |
| 2026-05-07 00:22 | 13.99032 | -61.09653 | 1828 ft | 138 kts | 60° |
| 2026-05-07 00:23 | 13.99418 | -61.08778 | 1801 ft | 137 kts | 71° |
| 2026-05-07 00:23 | 13.99713 | -61.07829 | 1673 ft | 137 kts | 74° |
| 2026-05-07 00:23 | 13.99984 | -61.06916 | 1546 ft | 134 kts | 74° |
| 2026-05-07 00:23 | 14.00225 | -61.06094 | 1366 ft | 109 kts | 74° |
| 2026-05-07 00:24 | 14.00426 | -61.05380 | 1152 ft | 103 kts | 75° |
| 2026-05-07 00:24 | 14.00640 | -61.04632 | 968 ft | 110 kts | 76° |
| 2026-05-07 00:24 | 14.00823 | -61.03846 | 706 ft | 114 kts | 78° |
| 2026-05-07 00:24 | 14.01002 | -61.03065 | 608 ft | 111 kts | 76° |
| 2026-05-07 00:25 | 14.01230 | -61.02309 | 472 ft | 110 kts | 71° |
| 2026-05-07 00:25 | 14.01410 | -61.01543 | 441 ft | 111 kts | 77° |
| 2026-05-07 00:25 | 14.01624 | -61.00770 | 238 ft | 112 kts | 77° |
| 2026-05-07 00:25 | 14.01816 | -61.00006 | 64 ft | 108 kts | 75° |
| 2026-05-07 00:26 | 14.01990 | -60.99338 | 22 ft | 64 kts | 74° |
| 2026-05-07 00:26 | 14.02021 | -60.99164 | 23 ft | 7 kts | 82° |
| 2026-05-07 00:26 | 14.02048 | -60.99183 | 23 ft | 14 kts | 287° |
| 2026-05-07 00:26 | 14.02028 | -60.99245 | 24 ft | 13 kts | 250° |
| 2026-05-07 00:27 | 14.01989 | -60.99357 | 22 ft | 19 kts | 250° |
| 2026-05-07 00:27 | 14.01987 | -60.99489 | 24 ft | 14 kts | 289° |
| 2026-05-07 00:27 | 14.01996 | -60.99567 | 24 ft | 2 kts | 295° |
| 2026-05-07 00:27 | 14.02025 | -60.99580 | 25 ft | 3 kts | 11° |
| 2026-05-07 00:28 | 14.02032 | -60.99568 | 24 ft | 0 kts | 74° |
| 2026-05-07 00:28 | 14.02028 | -60.99562 | 24 ft | 1 kts | 126° |
| 2026-05-07 00:28 | 14.02027 | -60.99562 | 24 ft | 0 kts | 137° |